Aeroporto :
LOGIN :

Iscrizione | Disclaimer

   EN    FR    IT 

 










Sommario :    VFR   VFR Marginale   IFR   IFR Intensivo   IFR Molto Intensivo
Visibilità : 
Base nubi : 
>= 8 km
>= 3000ft
5 / 8 km
1000 / 3000 ft
1500m / 5 km
500 / 1000 ft
800 / 1500m
200 / 500 ft
< 800m
< 200 ft
Simboli :   Temporali  Nebbia  Neve Forte  Precipitazioni Forti  Vento > 20 kt
SIGMETs :   Varie  Temporali  Ghiacco  Turbolenza  Onda orograficha  Ceneri Vulcaniche






- Altitudine del aeroporto : 913 ft


LFSX - Luxeuil

ULTIMO METAR :
  • 181430Z AUTO 36015KT 320V030 9999 FEW033 BKN041 BKN070 09/02 Q1019

METARs OBSOLETI :
  • 181400Z AUTO 01006KT 320V040 9999 FEW032/// SCT048/// OVC066/// ///TCU 09/03 Q1019
  • 181330Z AUTO 02005KT 330V080 9999 FEW017 SCT052 BKN066 08/01 Q1019
  • 181300Z AUTO 02010KT 320V050 9999 SCT028/// BKN033/// BKN040/// ///TCU 09/02 Q1019
  • 181230Z AUTO 34007KT 310V020 9999 FEW021 SCT028 BKN060 07/03 Q1019
  • 181200Z AUTO 35005KT 300V070 9999 SCT018 BKN024 BKN058 08/02 Q1018
  • 181130Z AUTO 35007KT 310V030 9999 SCT015/// BKN031/// BKN038/// ///TCU 07/03 Q1018
  • 181100Z AUTO 34010KT 310V010 9000 FEW024 BKN030 BKN036 06/03 Q1018
  • 181030Z AUTO 36005KT 330V040 9999 BKN024 BKN036 OVC076 07/03 Q1018
  • 181000Z AUTO 04004KT 340V080 9999 -RA SCT015 SCT022 BKN031 05/03 Q1018
  • 180930Z AUTO 35007KT 310V030 9999 -RA BKN018 OVC026 05/02 Q1018

TAF TAF LFSX
Valido dal 18 a 15 ore il 19 a 15 ore UTC


181400Z 1815/1915 01010G20KT 9999 BKN030
TEMPO 1815/1820 4900 -SHRA BKN025TCU
PROB30
TEMPO 1815/1820 2500 -TSRA BKN020CB
BECMG 1818/1820 VRB03KT
BECMG 1908/1910 4000 RA BKN014



MetMap, La meteo Aeronautica in un colpo d'occhio ! - Copyright ORBIFLY Dicembre 2007 - Disclaimer

ORBIFLY MET'MAP TEAM :

Programmazione e sviluppo : Alexandra Zaïnal
Concezione : Baudouin d'Aumeries
Supporto tecnico e logistico : Manuel Goepfert
Aiuto : Marc-Olivier Méhu
Aiuto per la traduzione : Arnaldo La Scala




FONTI E CREDITI :

   NOAA